sensor_id;sensor_type;location;lat;lon;timestamp;pressure;altitude;pressure_sealevel;temperature;humidity
56604;BME280;42486;47.478;19.036;2023-04-28T00:02:50;100748.50;;;4.38;92.43
56604;BME280;42486;47.478;19.036;2023-04-28T00:05:57;100752.81;;;4.38;91.93
56604;BME280;42486;47.478;19.036;2023-04-28T00:09:01;100762.13;;;4.62;94.79
56604;BME280;42486;47.478;19.036;2023-04-28T00:12:05;100755.56;;;4.55;92.85
56604;BME280;42486;47.478;19.036;2023-04-28T00:15:16;100758.16;;;4.55;94.40
56604;BME280;42486;47.478;19.036;2023-04-28T00:18:22;100763.25;;;4.57;93.31
56604;BME280;42486;47.478;19.036;2023-04-28T00:21:29;100758.47;;;4.48;92.06
56604;BME280;42486;47.478;19.036;2023-04-28T00:24:33;100757.16;;;4.37;90.73
56604;BME280;42486;47.478;19.036;2023-04-28T00:27:37;100757.16;;;4.37;90.78
56604;BME280;42486;47.478;19.036;2023-04-28T00:30:45;100754.44;;;4.40;91.18
56604;BME280;42486;47.478;19.036;2023-04-28T00:33:52;100760.72;;;4.35;91.40
56604;BME280;42486;47.478;19.036;2023-04-28T00:36:54;100754.97;;;4.28;92.15
56604;BME280;42486;47.478;19.036;2023-04-28T00:40:00;100753.41;;;4.24;92.16
56604;BME280;42486;47.478;19.036;2023-04-28T00:43:04;100752.16;;;4.12;92.17
56604;BME280;42486;47.478;19.036;2023-04-28T00:46:12;100758.63;;;4.23;91.59
56604;BME280;42486;47.478;19.036;2023-04-28T00:49:22;100750.94;;;4.21;92.25
56604;BME280;42486;47.478;19.036;2023-04-28T00:52:26;100751.19;;;4.15;93.24
56604;BME280;42486;47.478;19.036;2023-04-28T00:55:30;100751.12;;;4.16;95.67
56604;BME280;42486;47.478;19.036;2023-04-28T00:58:37;100758.47;;;4.05;96.04
56604;BME280;42486;47.478;19.036;2023-04-28T01:01:44;100758.47;;;4.05;96.57
56604;BME280;42486;47.478;19.036;2023-04-28T01:04:56;100761.31;;;3.99;96.79
56604;BME280;42486;47.478;19.036;2023-04-28T01:08:02;100762.19;;;3.98;97.67
56604;BME280;42486;47.478;19.036;2023-04-28T01:11:06;100766.28;;;4.04;98.90
56604;BME280;42486;47.478;19.036;2023-04-28T01:14:14;100765.44;;;4.03;99.19
56604;BME280;42486;47.478;19.036;2023-04-28T01:17:20;100757.34;;;4.12;98.78
56604;BME280;42486;47.478;19.036;2023-04-28T01:20:28;100758.03;;;4.16;99.50
56604;BME280;42486;47.478;19.036;2023-04-28T01:23:44;100755.50;;;4.14;98.43
56604;BME280;42486;47.478;19.036;2023-04-28T01:26:58;100762.25;;;4.18;99.17
56604;BME280;42486;47.478;19.036;2023-04-28T01:30:08;100760.38;;;4.22;96.32
56604;BME280;42486;47.478;19.036;2023-04-28T01:33:14;100760.44;;;4.21;96.65
56604;BME280;42486;47.478;19.036;2023-04-28T01:36:19;100752.69;;;4.21;97.94
56604;BME280;42486;47.478;19.036;2023-04-28T01:39:34;100758.25;;;4.32;96.22
56604;BME280;42486;47.478;19.036;2023-04-28T01:42:41;100751.66;;;4.25;96.42
56604;BME280;42486;47.478;19.036;2023-04-28T01:45:44;100751.78;;;4.22;95.36
56604;BME280;42486;47.478;19.036;2023-04-28T01:48:49;100750.09;;;4.21;95.39
56604;BME280;42486;47.478;19.036;2023-04-28T01:51:53;100751.91;;;4.18;96.10
56604;BME280;42486;47.478;19.036;2023-04-28T01:55:06;100749.13;;;4.23;98.55
56604;BME280;42486;47.478;19.036;2023-04-28T01:58:16;100744.28;;;4.36;97.50
56604;BME280;42486;47.478;19.036;2023-04-28T02:01:22;100740.22;;;4.30;97.97
56604;BME280;42486;47.478;19.036;2023-04-28T02:04:27;100750.56;;;4.30;98.54
56604;BME280;42486;47.478;19.036;2023-04-28T02:07:30;100758.97;;;4.35;95.14
56604;BME280;42486;47.478;19.036;2023-04-28T02:10:33;100754.84;;;4.31;92.65
56604;BME280;42486;47.478;19.036;2023-04-28T02:13:39;100758.97;;;4.35;94.03
56604;BME280;42486;47.478;19.036;2023-04-28T02:16:44;100757.28;;;4.34;93.50
56604;BME280;42486;47.478;19.036;2023-04-28T02:19:58;100764.31;;;4.31;92.09
56604;BME280;42486;47.478;19.036;2023-04-28T02:23:04;100765.50;;;4.24;91.23
56604;BME280;42486;47.478;19.036;2023-04-28T02:26:08;100762.00;;;4.25;94.11
56604;BME280;42486;47.478;19.036;2023-04-28T02:29:14;100754.06;;;4.29;92.92
56604;BME280;42486;47.478;19.036;2023-04-28T02:32:23;100764.66;;;4.23;91.97
56604;BME280;42486;47.478;19.036;2023-04-28T02:35:45;100763.22;;;4.16;92.06
56604;BME280;42486;47.478;19.036;2023-04-28T02:38:58;100766.47;;;4.21;93.20
56604;BME280;42486;47.478;19.036;2023-04-28T02:42:07;100763.09;;;4.19;92.63
56604;BME280;42486;47.478;19.036;2023-04-28T02:45:13;100761.09;;;4.04;91.71
56604;BME280;42486;47.478;19.036;2023-04-28T02:48:18;100769.13;;;3.97;92.68
56604;BME280;42486;47.478;19.036;2023-04-28T02:51:24;100765.53;;;4.02;91.81
56604;BME280;42486;47.478;19.036;2023-04-28T02:54:40;100763.94;;;3.97;92.72
56604;BME280;42486;47.478;19.036;2023-04-28T02:57:48;100763.28;;;3.92;92.53
56604;BME280;42486;47.478;19.036;2023-04-28T03:00:55;100761.34;;;3.97;90.10
56604;BME280;42486;47.478;19.036;2023-04-28T03:04:09;100767.50;;;3.95;89.08
56604;BME280;42486;47.478;19.036;2023-04-28T03:07:25;100761.19;;;4.02;89.95
56604;BME280;42486;47.478;19.036;2023-04-28T03:10:37;100767.12;;;4.04;90.50
56604;BME280;42486;47.478;19.036;2023-04-28T03:13:41;100774.47;;;4.15;91.00
56604;BME280;42486;47.478;19.036;2023-04-28T03:16:46;100768.97;;;4.23;89.22
56604;BME280;42486;47.478;19.036;2023-04-28T03:20:10;100776.06;;;4.17;86.64
56604;BME280;42486;47.478;19.036;2023-04-28T03:23:25;100777.81;;;4.17;87.99
56604;BME280;42486;47.478;19.036;2023-04-28T03:26:30;100788.59;;;4.28;87.56
56604;BME280;42486;47.478;19.036;2023-04-28T03:29:52;100776.53;;;4.27;88.32
56604;BME280;42486;47.478;19.036;2023-04-28T03:32:56;100786.22;;;4.22;86.40
56604;BME280;42486;47.478;19.036;2023-04-28T03:36:01;100778.56;;;4.21;86.31
56604;BME280;42486;47.478;19.036;2023-04-28T03:39:18;100782.09;;;4.18;86.78
56604;BME280;42486;47.478;19.036;2023-04-28T03:42:30;100784.91;;;4.12;87.69
56604;BME280;42486;47.478;19.036;2023-04-28T03:45:34;100790.03;;;4.13;88.86
56604;BME280;42486;47.478;19.036;2023-04-28T03:48:44;100783.41;;;4.06;87.53
56604;BME280;42486;47.478;19.036;2023-04-28T03:51:53;100780.91;;;4.05;88.26
56604;BME280;42486;47.478;19.036;2023-04-28T03:55:00;100792.00;;;4.07;89.92
56604;BME280;42486;47.478;19.036;2023-04-28T03:58:06;100790.09;;;4.12;90.35
56604;BME280;42486;47.478;19.036;2023-04-28T04:01:14;100795.16;;;4.15;90.21
56604;BME280;42486;47.478;19.036;2023-04-28T04:04:33;100789.59;;;4.24;91.30
56604;BME280;42486;47.478;19.036;2023-04-28T04:07:38;100790.13;;;4.32;88.59
56604;BME280;42486;47.478;19.036;2023-04-28T04:10:47;100794.47;;;4.32;85.83
56604;BME280;42486;47.478;19.036;2023-04-28T04:13:55;100799.03;;;4.47;86.00
56604;BME280;42486;47.478;19.036;2023-04-28T04:17:02;100799.84;;;4.48;86.69
56604;BME280;42486;47.478;19.036;2023-04-28T04:20:07;100804.50;;;4.60;88.39
56604;BME280;42486;47.478;19.036;2023-04-28T04:23:12;100803.22;;;4.70;87.33
56604;BME280;42486;47.478;19.036;2023-04-28T04:26:18;100808.22;;;4.75;86.57
56604;BME280;42486;47.478;19.036;2023-04-28T04:29:23;100808.81;;;4.81;83.20
56604;BME280;42486;47.478;19.036;2023-04-28T04:32:27;100812.75;;;4.90;83.45
56604;BME280;42486;47.478;19.036;2023-04-28T04:35:34;100806.50;;;5.15;85.91
56604;BME280;42486;47.478;19.036;2023-04-28T04:38:40;100808.28;;;5.33;85.64
56604;BME280;42486;47.478;19.036;2023-04-28T04:41:49;100802.97;;;5.55;82.00
56604;BME280;42486;47.478;19.036;2023-04-28T04:44:56;100803.91;;;5.73;78.96
56604;BME280;42486;47.478;19.036;2023-04-28T04:48:01;100805.44;;;6.67;75.77
56604;BME280;42486;47.478;19.036;2023-04-28T04:51:11;100811.16;;;8.05;68.44
56604;BME280;42486;47.478;19.036;2023-04-28T04:54:14;100816.97;;;10.00;60.77
56604;BME280;42486;47.478;19.036;2023-04-28T04:57:22;100828.78;;;11.25;55.15
56604;BME280;42486;47.478;19.036;2023-04-28T05:00:28;100822.00;;;12.09;50.85
56604;BME280;42486;47.478;19.036;2023-04-28T05:03:41;100826.00;;;12.02;50.80
56604;BME280;42486;47.478;19.036;2023-04-28T05:06:49;100823.13;;;10.53;52.95
56604;BME280;42486;47.478;19.036;2023-04-28T05:09:54;100815.88;;;9.19;58.58
56604;BME280;42486;47.478;19.036;2023-04-28T05:13:05;100818.16;;;8.35;60.77
56604;BME280;42486;47.478;19.036;2023-04-28T05:16:17;100818.97;;;8.67;60.99
56604;BME280;42486;47.478;19.036;2023-04-28T05:19:22;100819.16;;;9.23;58.44
56604;BME280;42486;47.478;19.036;2023-04-28T05:22:29;100825.09;;;10.36;54.68
56604;BME280;42486;47.478;19.036;2023-04-28T05:25:42;100837.19;;;10.65;52.54
56604;BME280;42486;47.478;19.036;2023-04-28T05:28:50;100839.09;;;11.14;51.71
56604;BME280;42486;47.478;19.036;2023-04-28T05:32:09;100839.22;;;10.99;51.57
56604;BME280;42486;47.478;19.036;2023-04-28T05:35:14;100837.94;;;10.67;52.94
56604;BME280;42486;47.478;19.036;2023-04-28T05:38:36;100837.28;;;10.63;55.15
56604;BME280;42486;47.478;19.036;2023-04-28T05:41:43;100834.81;;;10.87;53.78
56604;BME280;42486;47.478;19.036;2023-04-28T05:44:54;100834.41;;;10.41;55.55
56604;BME280;42486;47.478;19.036;2023-04-28T05:47:59;100833.66;;;10.11;56.34
56604;BME280;42486;47.478;19.036;2023-04-28T05:51:10;100841.00;;;11.12;54.53
56604;BME280;42486;47.478;19.036;2023-04-28T05:54:18;100839.66;;;11.81;53.08
56604;BME280;42486;47.478;19.036;2023-04-28T05:57:23;100841.75;;;11.01;54.79
56604;BME280;42486;47.478;19.036;2023-04-28T06:00:37;100835.78;;;9.63;59.81
56604;BME280;42486;47.478;19.036;2023-04-28T06:03:42;100844.19;;;9.68;60.35
56604;BME280;42486;47.478;19.036;2023-04-28T06:06:50;100838.34;;;9.36;62.14
56604;BME280;42486;47.478;19.036;2023-04-28T06:10:03;100842.50;;;10.09;58.65
56604;BME280;42486;47.478;19.036;2023-04-28T06:13:17;100844.00;;;10.93;55.31
56604;BME280;42486;47.478;19.036;2023-04-28T06:16:31;100849.84;;;11.73;52.70
56604;BME280;42486;47.478;19.036;2023-04-28T06:19:37;100857.03;;;11.95;51.04
56604;BME280;42486;47.478;19.036;2023-04-28T06:22:44;100859.22;;;11.26;52.45
56604;BME280;42486;47.478;19.036;2023-04-28T06:26:08;100858.59;;;11.98;50.26
56604;BME280;42486;47.478;19.036;2023-04-28T06:29:11;100852.56;;;11.72;50.26
56604;BME280;42486;47.478;19.036;2023-04-28T06:32:20;100852.03;;;11.66;50.95
56604;BME280;42486;47.478;19.036;2023-04-28T06:35:26;100859.28;;;11.50;52.25
56604;BME280;42486;47.478;19.036;2023-04-28T06:38:39;100858.25;;;11.53;51.44
56604;BME280;42486;47.478;19.036;2023-04-28T06:41:44;100854.13;;;11.87;51.01
56604;BME280;42486;47.478;19.036;2023-04-28T06:44:46;100862.03;;;11.36;52.18
56604;BME280;42486;47.478;19.036;2023-04-28T06:47:50;100855.53;;;11.03;52.62
56604;BME280;42486;47.478;19.036;2023-04-28T06:50:59;100861.00;;;11.26;52.15
56604;BME280;42486;47.478;19.036;2023-04-28T06:54:06;100861.09;;;11.50;50.90
56604;BME280;42486;47.478;19.036;2023-04-28T06:57:16;100861.66;;;11.92;49.65
56604;BME280;42486;47.478;19.036;2023-04-28T07:00:26;100856.06;;;11.46;50.56
56604;BME280;42486;47.478;19.036;2023-04-28T07:03:32;100854.16;;;10.97;53.01
56604;BME280;42486;47.478;19.036;2023-04-28T07:06:37;100851.66;;;11.60;51.08
56604;BME280;42486;47.478;19.036;2023-04-28T07:09:41;100842.91;;;12.22;49.70
56604;BME280;42486;47.478;19.036;2023-04-28T07:12:45;100850.81;;;14.48;45.37
56604;BME280;42486;47.478;19.036;2023-04-28T07:15:50;100856.34;;;15.91;39.02
56604;BME280;42486;47.478;19.036;2023-04-28T07:18:56;100858.31;;;15.98;38.98
56604;BME280;42486;47.478;19.036;2023-04-28T07:22:00;100847.97;;;14.72;41.52
56604;BME280;42486;47.478;19.036;2023-04-28T07:25:03;100846.97;;;14.20;44.20
56604;BME280;42486;47.478;19.036;2023-04-28T07:28:07;100850.25;;;15.29;40.39
56604;BME280;42486;47.478;19.036;2023-04-28T07:31:11;100854.00;;;16.17;40.04
56604;BME280;42486;47.478;19.036;2023-04-28T07:34:14;100847.63;;;17.44;39.08
56604;BME280;42486;47.478;19.036;2023-04-28T07:37:17;100853.53;;;17.28;38.22
56604;BME280;42486;47.478;19.036;2023-04-28T07:40:21;100853.19;;;17.04;37.76
56604;BME280;42486;47.478;19.036;2023-04-28T07:43:24;100856.28;;;16.31;38.72
56604;BME280;42486;47.478;19.036;2023-04-28T07:46:27;100842.44;;;15.17;38.99
56604;BME280;42486;47.478;19.036;2023-04-28T07:49:30;100841.09;;;15.02;39.52
56604;BME280;42486;47.478;19.036;2023-04-28T07:52:34;100849.94;;;15.22;37.76
56604;BME280;42486;47.478;19.036;2023-04-28T07:55:37;100833.47;;;15.51;38.80
56604;BME280;42486;47.478;19.036;2023-04-28T07:58:40;100830.84;;;15.60;39.85
56604;BME280;42486;47.478;19.036;2023-04-28T08:01:42;100826.97;;;15.64;38.05
56604;BME280;42486;47.478;19.036;2023-04-28T08:04:45;100822.53;;;16.15;40.12
56604;BME280;42486;47.478;19.036;2023-04-28T08:07:50;100815.94;;;17.99;35.94
56604;BME280;42486;47.478;19.036;2023-04-28T08:10:53;100822.75;;;18.38;33.76
56604;BME280;42486;47.478;19.036;2023-04-28T08:13:59;100804.38;;;17.73;35.47
56604;BME280;42486;47.478;19.036;2023-04-28T08:17:04;100803.44;;;17.36;36.19
56604;BME280;42486;47.478;19.036;2023-04-28T08:20:07;100802.41;;;16.53;33.75
56604;BME280;42486;47.478;19.036;2023-04-28T08:23:11;100793.97;;;15.60;36.16
56604;BME280;42486;47.478;19.036;2023-04-28T08:26:13;100792.53;;;15.87;37.28
56604;BME280;42486;47.478;19.036;2023-04-28T08:29:17;100790.06;;;16.05;36.94
56604;BME280;42486;47.478;19.036;2023-04-28T08:32:19;100786.59;;;16.24;35.44
56604;BME280;42486;47.478;19.036;2023-04-28T08:35:21;100779.09;;;16.29;35.55
56604;BME280;42486;47.478;19.036;2023-04-28T08:38:24;100786.28;;;16.66;36.57
56604;BME280;42486;47.478;19.036;2023-04-28T08:41:27;100782.56;;;16.78;36.17
56604;BME280;42486;47.478;19.036;2023-04-28T08:44:36;100780.13;;;16.75;35.05
56604;BME280;42486;47.478;19.036;2023-04-28T08:47:41;100775.44;;;16.59;33.81
56604;BME280;42486;47.478;19.036;2023-04-28T08:50:49;100776.34;;;16.31;34.66
56604;BME280;42486;47.478;19.036;2023-04-28T08:53:54;100777.81;;;16.62;37.21
56604;BME280;42486;47.478;19.036;2023-04-28T08:57:18;100774.06;;;16.65;34.76
56604;BME280;42486;47.478;19.036;2023-04-28T09:00:24;100774.09;;;16.45;33.32
56604;BME280;42486;47.478;19.036;2023-04-28T09:03:29;100772.69;;;16.22;36.05
56604;BME280;42486;47.478;19.036;2023-04-28T09:06:35;100768.56;;;16.39;36.11
56604;BME280;42486;47.478;19.036;2023-04-28T09:09:39;100768.09;;;16.63;35.81
56604;BME280;42486;47.478;19.036;2023-04-28T09:12:44;100768.66;;;16.57;35.85
56604;BME280;42486;47.478;19.036;2023-04-28T09:15:48;100771.56;;;16.63;34.46
56604;BME280;42486;47.478;19.036;2023-04-28T09:18:55;100770.69;;;16.72;35.58
56604;BME280;42486;47.478;19.036;2023-04-28T09:22:00;100769.34;;;16.78;34.38
56604;BME280;42486;47.478;19.036;2023-04-28T09:25:27;100765.00;;;16.87;35.36
56604;BME280;42486;47.478;19.036;2023-04-28T09:28:33;100761.69;;;17.22;34.15
56604;BME280;42486;47.478;19.036;2023-04-28T09:31:37;100766.34;;;17.38;33.43
56604;BME280;42486;47.478;19.036;2023-04-28T09:34:52;100762.66;;;17.21;32.31
56604;BME280;42486;47.478;19.036;2023-04-28T09:38:01;100762.28;;;17.16;34.27
56604;BME280;42486;47.478;19.036;2023-04-28T09:41:05;100771.31;;;17.41;33.71
56604;BME280;42486;47.478;19.036;2023-04-28T09:44:18;100765.66;;;17.81;32.37
56604;BME280;42486;47.478;19.036;2023-04-28T09:47:22;100762.44;;;17.88;32.87
56604;BME280;42486;47.478;19.036;2023-04-28T09:50:38;100741.19;;;17.61;31.06
56604;BME280;42486;47.478;19.036;2023-04-28T09:53:43;100742.31;;;17.77;32.10
56604;BME280;42486;47.478;19.036;2023-04-28T09:56:46;100733.16;;;17.53;32.98
56604;BME280;42486;47.478;19.036;2023-04-28T09:59:56;100740.25;;;17.71;32.08
56604;BME280;42486;47.478;19.036;2023-04-28T10:03:00;100736.50;;;17.73;32.89
56604;BME280;42486;47.478;19.036;2023-04-28T10:06:03;100729.28;;;18.11;31.97
56604;BME280;42486;47.478;19.036;2023-04-28T10:09:09;100728.87;;;17.70;30.96
56604;BME280;42486;47.478;19.036;2023-04-28T10:12:22;100721.87;;;17.79;32.83
56604;BME280;42486;47.478;19.036;2023-04-28T10:15:29;100712.13;;;17.97;31.22
56604;BME280;42486;47.478;19.036;2023-04-28T10:18:36;100705.16;;;17.78;32.72
56604;BME280;42486;47.478;19.036;2023-04-28T10:21:41;100701.28;;;17.55;32.75
56604;BME280;42486;47.478;19.036;2023-04-28T10:28:03;100697.34;;;17.87;31.97
56604;BME280;42486;47.478;19.036;2023-04-28T10:31:12;100700.66;;;17.89;32.65
56604;BME280;42486;47.478;19.036;2023-04-28T10:34:22;100682.38;;;17.77;32.92
56604;BME280;42486;47.478;19.036;2023-04-28T10:41:31;100681.78;;;17.83;34.97
56604;BME280;42486;47.478;19.036;2023-04-28T10:44:40;100667.13;;;17.71;32.88
56604;BME280;42486;47.478;19.036;2023-04-28T10:47:59;100666.66;;;17.94;32.26
56604;BME280;42486;47.478;19.036;2023-04-28T10:51:28;100675.59;;;18.19;34.00
56604;BME280;42486;47.478;19.036;2023-04-28T10:54:35;100663.44;;;18.52;31.71
56604;BME280;42486;47.478;19.036;2023-04-28T15:11:09;100376.22;;;17.65;38.17
56604;BME280;42486;47.478;19.036;2023-04-28T15:14:14;100375.56;;;17.71;38.54
56604;BME280;42486;47.478;19.036;2023-04-28T15:17:18;100370.28;;;17.71;38.26
56604;BME280;42486;47.478;19.036;2023-04-28T15:20:21;100377.19;;;17.55;38.69
56604;BME280;42486;47.478;19.036;2023-04-28T15:23:24;100363.34;;;17.61;38.20
56604;BME280;42486;47.478;19.036;2023-04-28T15:26:26;100367.94;;;17.59;38.18
56604;BME280;42486;47.478;19.036;2023-04-28T15:29:31;100363.97;;;17.55;37.92
56604;BME280;42486;47.478;19.036;2023-04-28T15:32:34;100364.41;;;17.43;38.08
56604;BME280;42486;47.478;19.036;2023-04-28T15:35:37;100358.22;;;17.34;39.06
56604;BME280;42486;47.478;19.036;2023-04-28T15:38:41;100355.53;;;17.26;39.01
56604;BME280;42486;47.478;19.036;2023-04-28T15:41:48;100353.13;;;17.06;40.94
56604;BME280;42486;47.478;19.036;2023-04-28T15:44:52;100356.38;;;17.00;39.84
56604;BME280;42486;47.478;19.036;2023-04-28T15:47:55;100351.66;;;16.86;40.82
56604;BME280;42486;47.478;19.036;2023-04-28T15:51:00;100350.53;;;16.70;42.28
56604;BME280;42486;47.478;19.036;2023-04-28T15:54:05;100345.84;;;16.64;41.97
56604;BME280;42486;47.478;19.036;2023-04-28T15:57:08;100334.09;;;16.59;42.11
56604;BME280;42486;47.478;19.036;2023-04-28T16:00:11;100329.56;;;16.51;42.39
56604;BME280;42486;47.478;19.036;2023-04-28T16:03:17;100329.75;;;16.49;42.69
56604;BME280;42486;47.478;19.036;2023-04-28T16:06:20;100322.88;;;16.39;42.96
56604;BME280;42486;47.478;19.036;2023-04-28T16:09:22;100321.06;;;16.39;43.97
56604;BME280;42486;47.478;19.036;2023-04-28T16:12:27;100318.13;;;16.42;43.40
56604;BME280;42486;47.478;19.036;2023-04-28T16:15:29;100320.00;;;16.32;43.01
56604;BME280;42486;47.478;19.036;2023-04-28T16:18:32;100321.38;;;16.36;43.81
56604;BME280;42486;47.478;19.036;2023-04-28T16:21:37;100322.81;;;16.31;44.31
56604;BME280;42486;47.478;19.036;2023-04-28T16:24:40;100325.97;;;16.34;44.69
56604;BME280;42486;47.478;19.036;2023-04-28T16:27:45;100315.19;;;16.27;43.58
56604;BME280;42486;47.478;19.036;2023-04-28T16:30:49;100314.84;;;16.22;43.58
56604;BME280;42486;47.478;19.036;2023-04-28T16:33:53;100306.38;;;16.19;44.65
56604;BME280;42486;47.478;19.036;2023-04-28T16:36:56;100307.12;;;16.11;44.08
56604;BME280;42486;47.478;19.036;2023-04-28T16:39:58;100296.66;;;16.01;44.51
56604;BME280;42486;47.478;19.036;2023-04-28T16:43:02;100294.03;;;16.01;44.76
56604;BME280;42486;47.478;19.036;2023-04-28T16:46:06;100287.09;;;16.00;45.18
56604;BME280;42486;47.478;19.036;2023-04-28T16:49:10;100282.00;;;15.99;44.70
56604;BME280;42486;47.478;19.036;2023-04-28T16:52:16;100282.88;;;15.90;45.15
56604;BME280;42486;47.478;19.036;2023-04-28T16:55:20;100275.19;;;15.78;45.37
56604;BME280;42486;47.478;19.036;2023-04-28T16:58:24;100263.97;;;15.76;45.32
56604;BME280;42486;47.478;19.036;2023-04-28T17:01:27;100262.69;;;15.80;45.62
56604;BME280;42486;47.478;19.036;2023-04-28T17:04:35;100265.38;;;15.71;45.33
56604;BME280;42486;47.478;19.036;2023-04-28T17:07:41;100262.62;;;15.72;46.82
56604;BME280;42486;47.478;19.036;2023-04-28T17:10:45;100255.84;;;15.70;47.10
56604;BME280;42486;47.478;19.036;2023-04-28T17:13:56;100242.00;;;15.58;47.09
56604;BME280;42486;47.478;19.036;2023-04-28T17:17:00;100242.81;;;15.58;47.28
56604;BME280;42486;47.478;19.036;2023-04-28T17:20:11;100232.75;;;15.54;47.60
56604;BME280;42486;47.478;19.036;2023-04-28T17:23:27;100221.66;;;15.50;47.91
56604;BME280;42486;47.478;19.036;2023-04-28T17:26:30;100215.50;;;15.41;48.62
56604;BME280;42486;47.478;19.036;2023-04-28T17:29:35;100216.63;;;15.39;48.62
56604;BME280;42486;47.478;19.036;2023-04-28T17:32:43;100219.16;;;15.31;48.47
56604;BME280;42486;47.478;19.036;2023-04-28T17:35:45;100222.09;;;15.28;47.55
56604;BME280;42486;47.478;19.036;2023-04-28T17:38:50;100226.56;;;15.17;48.92
56604;BME280;42486;47.478;19.036;2023-04-28T17:42:02;100233.78;;;15.15;49.07
56604;BME280;42486;47.478;19.036;2023-04-28T17:45:07;100230.50;;;15.04;49.15
56604;BME280;42486;47.478;19.036;2023-04-28T17:48:14;100236.16;;;15.09;50.01
56604;BME280;42486;47.478;19.036;2023-04-28T17:51:21;100229.09;;;15.09;49.97
56604;BME280;42486;47.478;19.036;2023-04-28T17:54:23;100230.25;;;14.97;49.76
56604;BME280;42486;47.478;19.036;2023-04-28T17:57:26;100237.72;;;14.92;49.37
56604;BME280;42486;47.478;19.036;2023-04-28T18:00:30;100235.41;;;14.89;50.12
56604;BME280;42486;47.478;19.036;2023-04-28T18:03:34;100235.78;;;14.94;51.86
56604;BME280;42486;47.478;19.036;2023-04-28T18:06:38;100240.81;;;14.87;50.89
56604;BME280;42486;47.478;19.036;2023-04-28T18:09:41;100240.25;;;14.84;50.28
56604;BME280;42486;47.478;19.036;2023-04-28T18:12:44;100243.34;;;14.79;50.60
56604;BME280;42486;47.478;19.036;2023-04-28T18:15:47;100251.66;;;14.74;51.31
56604;BME280;42486;47.478;19.036;2023-04-28T18:18:52;100252.94;;;14.61;53.06
56604;BME280;42486;47.478;19.036;2023-04-28T18:21:58;100247.25;;;14.36;55.27
56604;BME280;42486;47.478;19.036;2023-04-28T18:25:05;100248.81;;;14.09;58.19
56604;BME280;42486;47.478;19.036;2023-04-28T18:28:09;100258.03;;;13.84;62.94
56604;BME280;42486;47.478;19.036;2023-04-28T18:31:15;100243.63;;;13.59;63.84
56604;BME280;42486;47.478;19.036;2023-04-28T18:34:21;100254.19;;;13.38;66.46
56604;BME280;42486;47.478;19.036;2023-04-28T18:37:23;100253.13;;;13.20;70.70
56604;BME280;42486;47.478;19.036;2023-04-28T18:40:30;100248.38;;;13.04;73.80
56604;BME280;42486;47.478;19.036;2023-04-28T18:43:37;100253.13;;;12.89;78.04
56604;BME280;42486;47.478;19.036;2023-04-28T18:46:41;100251.69;;;12.75;81.56
56604;BME280;42486;47.478;19.036;2023-04-28T18:49:44;100241.28;;;12.64;80.25
56604;BME280;42486;47.478;19.036;2023-04-28T18:52:48;100246.19;;;12.57;80.92
56604;BME280;42486;47.478;19.036;2023-04-28T18:55:54;100249.31;;;12.51;85.47
56604;BME280;42486;47.478;19.036;2023-04-28T18:59:03;100249.12;;;12.43;93.27
56604;BME280;42486;47.478;19.036;2023-04-28T19:02:08;100245.03;;;12.29;94.15
56604;BME280;42486;47.478;19.036;2023-04-28T19:05:12;100247.94;;;12.15;98.14
56604;BME280;42486;47.478;19.036;2023-04-28T19:08:20;100243.72;;;12.03;100.00
56604;BME280;42486;47.478;19.036;2023-04-28T19:11:22;100233.66;;;11.87;100.00
56604;BME280;42486;47.478;19.036;2023-04-28T19:14:28;100239.50;;;11.79;100.00
56604;BME280;42486;47.478;19.036;2023-04-28T19:17:32;100249.59;;;11.73;100.00
56604;BME280;42486;47.478;19.036;2023-04-28T19:20:42;100250.94;;;11.67;100.00
56604;BME280;42486;47.478;19.036;2023-04-28T19:23:48;100260.31;;;11.69;100.00
56604;BME280;42486;47.478;19.036;2023-04-28T19:26:55;100261.28;;;11.68;100.00
56604;BME280;42486;47.478;19.036;2023-04-28T19:30:01;100255.91;;;11.70;100.00
56604;BME280;42486;47.478;19.036;2023-04-28T19:33:05;100262.84;;;11.71;100.00
56604;BME280;42486;47.478;19.036;2023-04-28T19:36:09;100261.28;;;11.68;100.00
56604;BME280;42486;47.478;19.036;2023-04-28T19:39:15;100261.28;;;11.68;100.00
56604;BME280;42486;47.478;19.036;2023-04-28T19:42:22;100265.56;;;11.69;100.00
56604;BME280;42486;47.478;19.036;2023-04-28T19:45:26;100256.06;;;11.46;100.00
56604;BME280;42486;47.478;19.036;2023-04-28T19:48:29;100264.56;;;11.38;100.00
56604;BME280;42486;47.478;19.036;2023-04-28T19:51:35;100261.56;;;11.43;100.00
56604;BME280;42486;47.478;19.036;2023-04-28T19:54:41;100261.31;;;11.46;100.00
56604;BME280;42486;47.478;19.036;2023-04-28T19:57:47;100258.44;;;11.60;100.00
56604;BME280;42486;47.478;19.036;2023-04-28T20:00:53;100251.22;;;11.41;100.00
56604;BME280;42486;47.478;19.036;2023-04-28T20:03:56;100249.53;;;11.40;100.00
56604;BME280;42486;47.478;19.036;2023-04-28T20:06:59;100243.97;;;11.45;100.00
56604;BME280;42486;47.478;19.036;2023-04-28T20:10:03;100234.22;;;11.47;100.00
56604;BME280;42486;47.478;19.036;2023-04-28T20:13:06;100236.47;;;11.40;100.00
56604;BME280;42486;47.478;19.036;2023-04-28T20:16:09;100213.87;;;11.39;100.00
56604;BME280;42486;47.478;19.036;2023-04-28T20:19:12;100218.53;;;11.36;100.00
56604;BME280;42486;47.478;19.036;2023-04-28T20:22:16;100217.69;;;11.35;100.00
56604;BME280;42486;47.478;19.036;2023-04-28T20:25:20;100212.47;;;11.35;100.00
56604;BME280;42486;47.478;19.036;2023-04-28T20:28:24;100219.84;;;11.41;100.00